| time (UTC) | temp F | wind direction | speed MPH | gust MPH | rain 1hr in | rain 24hr in | rain mn in | humidity % | barometer mb |
| 20260508013850 | 51 | 115 | 0.0 | 2.0 | 0.00 | 0.00 | 0.00 | 54 | 1012.5 |
| 20260508012907 | 52 | 108 | 0.0 | 4.0 | 0.00 | 0.00 | 0.00 | 53 | 1012.3 |
| 20260508011849 | 52 | 113 | 1.0 | 7.0 | 0.00 | 0.00 | 0.00 | 52 | 1012.2 |
| 20260508010841 | 53 | 131 | 1.0 | 7.0 | 0.00 | 0.00 | 0.00 | 51 | 1012.0 |
| 20260508005830 | 53 | 109 | 0.0 | 5.0 | 0.00 | 0.00 | 0.00 | 50 | 1011.9 |
| 20260508004855 | 53 | 131 | 2.0 | 5.0 | 0.00 | 0.00 | 0.00 | 49 | 1011.8 |
| 20260508003902 | 54 | 151 | 2.0 | 6.0 | 0.00 | 0.00 | 0.00 | 48 | 1011.6 |
| 20260508002906 | 55 | 91 | 1.0 | 6.0 | 0.00 | 0.00 | 0.00 | 47 | 1011.4 |
| 20260508001907 | 55 | 113 | 2.0 | 5.0 | 0.00 | 0.00 | 0.00 | 46 | 1011.2 |
| 20260508000840 | 56 | 123 | 2.0 | 8.0 | 0.00 | 0.00 | 0.00 | 45 | 1011.1 |
| 20260507235844 | 56 | 96 | 3.0 | 8.0 | 0.00 | 0.00 | 0.00 | 44 | 1010.9 |
| 20260507234811 | 56 | 120 | 2.0 | 7.0 | 0.00 | 0.00 | 0.00 | 45 | 1010.7 |
| 20260507233750 | 56 | 106 | 2.0 | 8.0 | 0.00 | 0.00 | 0.00 | 44 | 1010.6 |
| 20260507232805 | 57 | 122 | 3.0 | 8.0 | 0.00 | 0.00 | 0.00 | 42 | 1010.5 |
| 20260507231824 | 57 | 107 | 3.0 | 8.0 | 0.00 | 0.00 | 0.00 | 42 | 1010.5 |
| 20260507230820 | 57 | 101 | 2.0 | 8.0 | 0.00 | 0.00 | 0.00 | 42 | 1010.3 |
| 20260507225842 | 58 | 112 | 2.0 | 6.0 | 0.00 | 0.00 | 0.00 | 42 | 1010.3 |
| 20260507224854 | 58 | 118 | 3.0 | 9.0 | 0.00 | 0.00 | 0.00 | 43 | 1010.3 |
| 20260507223913 | 58 | 94 | 4.0 | 10.0 | 0.00 | 0.00 | 0.00 | 41 | 1010.2 |
| 20260507222935 | 58 | 101 | 5.0 | 11.0 | 0.00 | 0.00 | 0.00 | 40 | 1010.2 |
| 20260507221920 | 60 | 93 | 4.0 | 12.0 | 0.00 | 0.00 | 0.00 | 42 | 1009.9 |
| 20260507220858 | 59 | 98 | 4.0 | 12.0 | 0.00 | 0.00 | 0.00 | 41 | 1009.9 |
| 20260507215832 | 59 | 108 | 3.0 | 9.0 | 0.00 | 0.00 | 0.00 | 40 | 1009.8 |
| 20260507214821 | 60 | 105 | 4.0 | 9.0 | 0.00 | 0.00 | 0.00 | 40 | 1009.7 |
| 20260507213759 | 60 | 112 | 2.0 | 8.0 | 0.00 | 0.00 | 0.00 | 42 | 1009.7 |
| 20260507212749 | 58 | 91 | 4.0 | 17.0 | 0.00 | 0.00 | 0.00 | 40 | 1009.6 |
| 20260507211745 | 59 | 112 | 6.0 | 17.0 | 0.00 | 0.00 | 0.00 | 40 | 1009.8 |
| 20260507205616 | 59 | 112 | 2.0 | 7.0 | 0.00 | 0.00 | 0.00 | 40 | 1009.6 |
| 20260507204613 | 59 | 101 | 2.0 | 7.0 | 0.00 | 0.00 | 0.00 | 45 | 1009.5 |
| 20260507203634 | 59 | 122 | 2.0 | 7.0 | 0.00 | 0.00 | 0.00 | 41 | 1009.5 |
| 20260507202643 | 59 | 122 | 3.0 | 13.0 | 0.00 | 0.00 | 0.00 | 43 | 1009.5 |
| 20260507201702 | 59 | 105 | 5.0 | 13.0 | 0.00 | 0.00 | 0.00 | 41 | 1009.7 |
| 20260507200707 | 60 | 105 | 5.0 | 11.0 | 0.00 | 0.00 | 0.00 | 42 | 1009.6 |
| 20260507195646 | 60 | 100 | 4.0 | 10.0 | 0.00 | 0.00 | 0.00 | 44 | 1009.8 |
| 20260507193542 | 59 | 107 | 5.0 | 12.0 | 0.00 | 0.00 | 0.00 | 44 | 1010.1 |
| 20260507192607 | 59 | 97 | 4.0 | 11.0 | 0.00 | 0.00 | 0.00 | 42 | 1010.1 |
| 20260507191557 | 58 | 120 | 3.0 | 9.0 | 0.00 | 0.00 | 0.00 | 46 | 1010.1 |
| 20260507185346 | 58 | 60 | 4.0 | 12.0 | 0.00 | 0.00 | 0.00 | 47 | 1010.2 |
| 20260507184340 | 59 | 111 | 3.0 | 10.0 | 0.00 | 0.00 | 0.00 | 49 | 1010.3 |
| 20260507183320 | 59 | 103 | 2.0 | 8.0 | 0.00 | 0.00 | 0.00 | 46 | 1010.2 |
| 20260507182257 | 59 | 109 | 1.0 | 6.0 | 0.00 | 0.00 | 0.00 | 51 | 1010.4 |
| 20260507181242 | 58 | 115 | 3.0 | 6.0 | 0.00 | 0.00 | 0.00 | 49 | 1010.4 |
| 20260507180219 | 57 | 92 | 1.0 | 6.0 | 0.00 | 0.00 | 0.00 | 50 | 1010.5 |
| 20260507175240 | 57 | 108 | 3.0 | 8.0 | 0.00 | 0.00 | 0.00 | 49 | 1010.5 |
| 20260507174238 | 57 | 105 | 3.0 | 11.0 | 0.00 | 0.00 | 0.00 | 47 | 1010.6 |
| 20260507173253 | 58 | 130 | 5.0 | 12.0 | 0.00 | 0.00 | 0.00 | 46 | 1010.8 |
| 20260507172253 | 58 | 94 | 2.0 | 12.0 | 0.00 | 0.00 | 0.00 | 50 | 1010.9 |
| 20260507171259 | 57 | 105 | 3.0 | 12.0 | 0.00 | 0.00 | 0.00 | 47 | 1011.1 |
| 20260507170317 | 57 | 121 | 2.0 | 7.0 | 0.00 | 0.00 | 0.00 | 48 | 1011.2 |
| 20260507165253 | 57 | 111 | 2.0 | 10.0 | 0.00 | 0.00 | 0.00 | 48 | 1011.2 |
| 20260507161910 | 57 | 111 | 4.0 | 9.0 | 0.00 | 0.00 | 0.00 | 45 | 1011.5 |
| 20260507155758 | 57 | 110 | 2.0 | 6.0 | 0.00 | 0.00 | 0.00 | 47 | 1011.6 |
| 20260507154735 | 57 | 102 | 2.0 | 8.0 | 0.00 | 0.00 | 0.00 | 47 | 1011.8 |
| 20260507153715 | 56 | 41 | 3.0 | 8.0 | 0.00 | 0.00 | 0.00 | 51 | 1011.8 |
| 20260507152737 | 55 | 101 | 1.0 | 8.0 | 0.00 | 0.00 | 0.00 | 49 | 1011.9 |
| 20260507151736 | 54 | 112 | 2.0 | 6.0 | 0.00 | 0.00 | 0.00 | 51 | 1012.0 |
| 20260507150757 | 55 | 106 | 0.0 | 5.0 | 0.00 | 0.00 | 0.00 | 51 | 1012.1 |
| 20260507145803 | 56 | 308 | 2.0 | 7.0 | 0.00 | 0.01 | 0.00 | 52 | 1012.2 |
| 20260507144802 | 56 | 110 | 1.0 | 5.0 | 0.00 | 0.01 | 0.00 | 51 | 1012.3 |
| 20260507143750 | 55 | 130 | 0.0 | 0.0 | 0.00 | 0.01 | 0.00 | 55 | 1012.4 |
| 20260507142808 | 54 | 107 | 3.0 | 8.0 | 0.00 | 0.01 | 0.00 | 52 | 1012.5 |
| 20260507141823 | 54 | 50 | 1.0 | 5.0 | 0.00 | 0.01 | 0.00 | 54 | 1012.7 |
| 20260507140827 | 54 | 45 | 1.0 | 5.0 | 0.00 | 0.01 | 0.00 | 53 | 1012.9 |
| 20260507135756 | 54 | 58 | 0.0 | 5.0 | 0.00 | 0.03 | 0.00 | 54 | 1013.0 |
| 20260507134809 | 53 | 119 | 1.0 | 4.0 | 0.00 | 0.04 | 0.00 | 56 | 1013.2 |
| 20260507132659 | 52 | 107 | 0.0 | 4.0 | 0.00 | 0.04 | 0.00 | 57 | 1013.3 |
| 20260507131655 | 52 | 107 | 0.0 | 3.0 | 0.00 | 0.04 | 0.00 | 57 | 1013.4 |
| 20260507130716 | 53 | 68 | 0.0 | 0.0 | 0.00 | 0.04 | 0.00 | 58 | 1013.2 |
| 20260507125727 | 53 | 40 | 0.0 | 2.0 | 0.00 | 0.04 | 0.00 | 59 | 1013.2 |
| 20260507123633 | 52 | 120 | 0.0 | 0.0 | 0.00 | 0.04 | 0.00 | 56 | 1013.2 |
| 20260507122628 | 51 | 121 | 0.0 | 0.0 | 0.00 | 0.04 | 0.00 | 50 | 1013.4 |
| 20260507120521 | 47 | 121 | 0.0 | 0.0 | 0.00 | 0.04 | 0.00 | 10 | 1013.3 |
| 20260507115526 | 45 | 121 | 0.0 | 0.0 | 0.00 | 0.06 | 0.00 | 1 | 1013.2 |
| 20260507114452 | 42 | 121 | 0.0 | 0.0 | 0.00 | 0.06 | 0.00 | 1 | 1013.2 |
| 20260507113510 | 40 | 121 | 0.0 | 0.0 | 0.00 | 0.06 | 0.00 | 1 | 1013.1 |
| 20260507112459 | 40 | 121 | 0.0 | 0.0 | 0.00 | 0.06 | 0.00 | 1 | 1013.1 |
| 20260507111501 | 39 | 121 | 0.0 | 0.0 | 0.00 | 0.06 | 0.00 | 1 | 1012.9 |
| 20260507110516 | 39 | 121 | 0.0 | 0.0 | 0.00 | 0.06 | 0.00 | 1 | 1012.7 |
| 20260507105454 | 39 | 121 | 0.0 | 0.0 | 0.00 | 0.06 | 0.00 | 1 | 1012.6 |
| 20260507104448 | 39 | 121 | 0.0 | 0.0 | 0.00 | 0.07 | 0.00 | 1 | 1012.6 |
| 20260507103510 | 39 | 121 | 0.0 | 0.0 | 0.00 | 0.08 | 0.00 | 1 | 1012.6 |
| 20260507102511 | 39 | 121 | 0.0 | 0.0 | 0.00 | 0.08 | 0.00 | 1 | 1012.5 |
| 20260507101500 | 40 | 121 | 0.0 | 0.0 | 0.00 | 0.09 | 0.00 | 1 | 1012.5 |
| 20260507100520 | 40 | 121 | 0.0 | 0.0 | 0.00 | 0.12 | 0.00 | 1 | 1012.4 |
| 20260507095523 | 39 | 121 | 0.0 | 0.0 | 0.00 | 0.13 | 0.00 | 1 | 1012.3 |
| 20260507094522 | 39 | 121 | 0.0 | 0.0 | 0.00 | 0.14 | 0.00 | 1 | 1012.4 |
| 20260507093531 | 39 | 121 | 0.0 | 0.0 | 0.00 | 0.14 | 0.00 | 1 | 1012.3 |
| 20260507091414 | 40 | 121 | 0.0 | 0.0 | 0.00 | 0.15 | 0.00 | 1 | 1012.4 |
| 20260507090405 | 41 | 121 | 0.0 | 0.0 | 0.00 | 0.16 | 0.00 | 5 | 1012.6 |
| 20260507085340 | 41 | 121 | 0.0 | 0.0 | 0.00 | 0.17 | 0.00 | 13 | 1012.6 |
| 20260507084400 | 41 | 121 | 0.0 | 0.0 | 0.00 | 0.18 | 0.00 | 21 | 1012.6 |
| 20260507083409 | 42 | 121 | 0.0 | 0.0 | 0.00 | 0.19 | 0.00 | 30 | 1012.6 |
| 20260507082357 | 43 | 121 | 0.0 | 0.0 | 0.00 | 0.20 | 0.00 | 33 | 1012.6 |
| 20260507080221 | 41 | 121 | 0.0 | 0.0 | 0.00 | 0.22 | 0.00 | 23 | 1012.4 |
| 20260507074125 | 42 | 121 | 0.0 | 0.0 | 0.00 | 0.23 | 0.00 | 28 | 1012.5 |
| 20260507073121 | 43 | 121 | 0.0 | 0.0 | 0.00 | 0.23 | 0.00 | 30 | 1012.5 |
| 20260507072056 | 44 | 121 | 0.0 | 0.0 | 0.00 | 0.24 | 0.00 | 31 | 1012.5 |
| 20260507071055 | 44 | 121 | 0.0 | 0.0 | 0.00 | 0.24 | 0.00 | 32 | 1012.5 |
| 20260507064948 | 46 | 121 | 0.0 | 0.0 | 0.00 | 0.26 | 0.00 | 31 | 1012.4 |
| 20260507063949 | 46 | 121 | 0.0 | 0.0 | 0.00 | 0.27 | 0.00 | 27 | 1012.5 |
| 20260507062942 | 47 | 121 | 0.0 | 0.0 | 0.00 | 0.28 | 0.00 | 29 | 1012.5 |
| 20260507061956 | 47 | 121 | 0.0 | 0.0 | 0.00 | 0.28 | 0.00 | 39 | 1012.6 |
| 20260507060941 | 47 | 121 | 0.0 | 0.0 | 0.00 | 0.28 | 0.00 | 36 | 1012.7 |
| 20260507055953 | 47 | 121 | 0.0 | 0.0 | 0.00 | 0.28 | 0.00 | 28 | 1012.8 |
| 20260507054944 | 47 | 121 | 0.0 | 0.0 | 0.00 | 0.28 | 0.00 | 26 | 1012.9 |
| 20260507052759 | 47 | 121 | 0.0 | 0.0 | 0.00 | 0.29 | 0.00 | 34 | 1013.1 |
| 20260507051803 | 48 | 121 | 0.0 | 0.0 | 0.00 | 0.29 | 0.00 | 34 | 1013.2 |
| 20260507050756 | 48 | 121 | 0.0 | 0.0 | 0.00 | 0.29 | 0.00 | 31 | 1013.1 |
| 20260507045753 | 48 | 121 | 0.0 | 0.0 | 0.00 | 0.29 | 0.00 | 30 | 1013.2 |
| 20260507044726 | 48 | 121 | 0.0 | 0.0 | 0.00 | 0.29 | 0.00 | 28 | 1013.1 |
| 20260507043714 | 48 | 121 | 0.0 | 0.0 | 0.00 | 0.29 | 0.00 | 27 | 1013.1 |
| 20260507041531 | 48 | 121 | 0.0 | 0.0 | 0.00 | 0.29 | 0.00 | 47 | 1013.0 |
| 20260507040515 | 49 | 121 | 0.0 | 0.0 | 0.00 | 0.29 | 0.00 | 44 | 1013.1 |
| 20260507032056 | 49 | 121 | 0.0 | 0.0 | 0.00 | 0.29 | 0.28 | 51 | 1013.0 |
| 20260507031120 | 49 | 121 | 0.0 | 0.0 | 0.00 | 0.29 | 0.28 | 49 | 1012.9 |
| 20260507030101 | 49 | 121 | 0.0 | 0.0 | 0.00 | 0.29 | 0.28 | 47 | 1012.6 |
| 20260507023941 | 50 | 121 | 0.0 | 0.0 | 0.00 | 0.29 | 0.28 | 46 | 1012.4 |
| 20260507022952 | 50 | 121 | 0.0 | 0.0 | 0.00 | 0.29 | 0.28 | 47 | 1012.3 |
| 20260507021949 | 50 | 121 | 0.0 | 0.0 | 0.00 | 0.29 | 0.28 | 45 | 1012.5 |
| 20260507020933 | 51 | 121 | 0.0 | 0.0 | 0.00 | 0.29 | 0.28 | 42 | 1012.4 |
| 20260507015922 | 51 | 121 | 0.0 | 0.0 | 0.00 | 0.29 | 0.28 | 40 | 1012.3 |
| 20260507014945 | 51 | 121 | 0.0 | 0.0 | 0.00 | 0.29 | 0.28 | 32 | 1012.0 |